Time;durP1;ratioP1;P1;durP2;ratioP2;P2;SDS_P1;SDS_P2;PMS_P1;PMS_P2;Temp;Humidity;BMP_temperature;BMP_pressure;BME280_temperature;BME280_humidity;BME280_pressure;Samples;Min_cycle;Max_cycle;Signal;HPM_P1;HPM_P2
2023/06/13 00:02:10;;;;;;;1.60;1.13;;;19.10;90.20;;;;;;5040608;28;20224;-62
2023/06/13 00:04:43;;;;;;;0.90;0.60;;;19.00;89.80;;;;;;5043372;28;20254;-62
2023/06/13 00:07:12;;;;;;;0.70;0.68;;;19.00;90.00;;;;;;5042721;28;20208;-62
2023/06/13 00:09:40;;;;;;;0.80;0.77;;;19.00;90.10;;;;;;5037550;28;20250;-62
2023/06/13 00:12:11;;;;;;;1.15;0.90;;;18.90;90.40;;;;;;5040362;28;20209;-61
2023/06/13 00:14:39;;;;;;;0.90;0.80;;;18.90;90.10;;;;;;5040505;28;20208;-62
2023/06/13 00:17:07;;;;;;;1.10;1.00;;;18.90;90.10;;;;;;5042378;28;20255;-62
2023/06/13 00:19:36;;;;;;;1.13;0.82;;;18.90;90.10;;;;;;5040588;28;20313;-62
2023/06/13 00:22:05;;;;;;;0.70;0.60;;;18.90;90.30;;;;;;5045414;28;20211;-62
2023/06/13 00:24:32;;;;;;;1.45;1.35;;;18.90;90.60;;;;;;5040744;28;20291;-61
2023/06/13 00:27:00;;;;;;;0.80;0.80;;;18.80;90.50;;;;;;5039013;28;20244;-62
2023/06/13 00:29:30;;;;;;;1.15;1.05;;;18.80;90.20;;;;;;5038537;28;20212;-62
2023/06/13 00:31:57;;;;;;;1.20;0.65;;;18.80;90.30;;;;;;5036034;28;20266;-62
2023/06/13 00:34:25;;;;;;;1.48;1.10;;;18.70;90.50;;;;;;5040678;28;20264;-62
2023/06/13 00:36:53;;;;;;;1.40;1.10;;;18.70;90.50;;;;;;5038846;28;20584;-62
2023/06/13 00:39:21;;;;;;;0.77;0.70;;;18.70;90.60;;;;;;5040175;28;20285;-62
2023/06/13 00:41:49;;;;;;;1.60;1.50;;;18.70;90.30;;;;;;5037251;28;20224;-62
2023/06/13 00:44:17;;;;;;;1.50;0.80;;;18.70;90.60;;;;;;5035965;28;20226;-64
2023/06/13 00:46:47;;;;;;;1.02;0.85;;;18.70;90.30;;;;;;5032948;28;20671;-62
2023/06/13 00:49:16;;;;;;;2.15;0.90;;;18.70;90.50;;;;;;5038789;28;20226;-61
2023/06/13 00:51:45;;;;;;;0.85;0.85;;;18.70;90.80;;;;;;5040492;28;20201;-61
2023/06/13 00:54:16;;;;;;;0.93;0.60;;;18.60;90.60;;;;;;5044951;28;20201;-61
2023/06/13 00:56:45;;;;;;;1.25;1.02;;;18.60;90.60;;;;;;5045511;28;20196;-61
2023/06/13 00:59:14;;;;;;;0.70;0.60;;;18.50;90.70;;;;;;5030437;28;20214;-62
2023/06/13 01:01:43;;;;;;;1.30;1.10;;;18.60;90.60;;;;;;5042737;28;20220;-61
2023/06/13 01:04:13;;;;;;;1.20;0.85;;;18.60;90.50;;;;;;5042974;28;20225;-62
2023/06/13 01:06:45;;;;;;;1.30;0.80;;;18.60;90.60;;;;;;5030519;28;20212;-61
2023/06/13 01:09:16;;;;;;;1.77;1.08;;;18.60;90.70;;;;;;5034436;28;20579;-62
2023/06/13 01:11:59;;;;;;;1.60;1.15;;;18.60;91.20;;;;;;5035315;28;20265;-62
2023/06/13 01:14:36;;;;;;;1.73;1.08;;;18.50;90.90;;;;;;5036204;28;20219;-62
2023/06/13 01:17:10;;;;;;;0.77;0.70;;;18.50;90.60;;;;;;5040439;28;20295;-62
2023/06/13 01:19:43;;;;;;;1.50;0.85;;;18.40;90.60;;;;;;5035378;28;20294;-62
2023/06/13 01:22:16;;;;;;;0.90;0.70;;;18.40;91.00;;;;;;5042656;28;20212;-62
2023/06/13 01:24:53;;;;;;;1.50;0.80;;;18.40;91.10;;;;;;5035278;28;20219;-62
2023/06/13 01:27:23;;;;;;;0.77;0.60;;;18.30;91.20;;;;;;5041702;28;20215;-62
2023/06/13 01:29:53;;;;;;;1.15;1.02;;;18.30;91.40;;;;;;5044175;28;20307;-62
2023/06/13 01:32:22;;;;;;;0.75;0.75;;;18.20;91.40;;;;;;5045571;28;20201;-62
2023/06/13 01:34:51;;;;;;;0.95;0.80;;;18.10;91.50;;;;;;5040408;28;20201;-62
2023/06/13 01:37:19;;;;;;;0.95;0.85;;;18.10;91.60;;;;;;5040068;28;20870;-62
2023/06/13 01:39:47;;;;;;;1.50;0.80;;;18.10;91.90;;;;;;5044281;28;21867;-61
2023/06/13 01:42:15;;;;;;;1.40;0.90;;;18.10;92.10;;;;;;5033987;28;20209;-61
2023/06/13 01:44:44;;;;;;;1.10;0.60;;;18.10;91.90;;;;;;5034559;28;20349;-62
2023/06/13 01:47:20;;;;;;;1.40;1.30;;;18.00;92.00;;;;;;5035697;28;20234;-62
2023/06/13 01:49:56;;;;;;;0.70;0.60;;;17.90;92.40;;;;;;5040194;28;20228;-62
2023/06/13 01:52:33;;;;;;;1.17;0.85;;;17.90;91.90;;;;;;5045089;28;20924;-62
2023/06/13 01:55:05;;;;;;;1.08;0.80;;;17.90;92.30;;;;;;5035515;28;20213;-62
2023/06/13 01:57:39;;;;;;;0.70;0.60;;;17.90;92.30;;;;;;5044522;28;20228;-62
2023/06/13 02:00:12;;;;;;;0.90;0.90;;;17.90;92.50;;;;;;5040663;28;20228;-62
2023/06/13 02:02:42;;;;;;;1.20;0.75;;;17.80;93.00;;;;;;5042228;28;20250;-62
2023/06/13 02:05:11;;;;;;;1.58;1.27;;;17.90;92.80;;;;;;5040924;28;20227;-62
2023/06/13 02:07:40;;;;;;;1.08;0.70;;;17.80;92.70;;;;;;5039721;28;20720;-62
2023/06/13 02:10:08;;;;;;;0.88;0.80;;;17.80;92.70;;;;;;5041507;28;20237;-62
2023/06/13 02:12:36;;;;;;;0.80;0.80;;;17.70;92.80;;;;;;5044692;28;20675;-62
2023/06/13 02:15:08;;;;;;;0.80;0.65;;;17.70;92.90;;;;;;5041794;28;20208;-62
2023/06/13 02:17:37;;;;;;;1.00;0.80;;;17.70;92.90;;;;;;5038285;28;20207;-62
2023/06/13 02:20:06;;;;;;;1.40;1.08;;;17.70;93.50;;;;;;5035353;28;20237;-62
2023/06/13 02:22:34;;;;;;;0.88;0.88;;;17.70;93.10;;;;;;5043251;28;20211;-62
2023/06/13 02:25:03;;;;;;;1.02;0.60;;;17.60;93.20;;;;;;5037757;28;20228;-62
2023/06/13 02:27:31;;;;;;;0.60;0.50;;;17.60;93.10;;;;;;5038680;28;20200;-61
2023/06/13 02:30:00;;;;;;;1.13;1.02;;;17.60;93.30;;;;;;5043878;28;20236;-62
2023/06/13 02:32:29;;;;;;;1.30;1.10;;;17.60;93.50;;;;;;5041056;28;20234;-61
2023/06/13 02:34:58;;;;;;;1.30;1.10;;;17.60;93.50;;;;;;5041799;28;20236;-61
2023/06/13 02:37:26;;;;;;;1.02;0.88;;;17.50;94.40;;;;;;5035130;28;20621;-61
2023/06/13 02:39:54;;;;;;;1.35;0.82;;;17.40;93.90;;;;;;5044725;28;20589;-61
2023/06/13 02:42:22;;;;;;;1.48;0.90;;;17.40;94.40;;;;;;5045986;28;20211;-61
2023/06/13 02:44:50;;;;;;;1.23;1.13;;;17.30;94.40;;;;;;5043227;28;20216;-62
2023/06/13 02:47:19;;;;;;;1.13;1.00;;;17.20;94.70;;;;;;5042289;28;20203;-61
2023/06/13 02:49:47;;;;;;;0.85;0.65;;;17.20;95.00;;;;;;5038715;28;20242;-62
2023/06/13 02:52:16;;;;;;;1.20;0.82;;;17.10;95.30;;;;;;5036663;28;20217;-62
2023/06/13 02:54:44;;;;;;;1.27;0.80;;;17.10;95.30;;;;;;5034480;28;20196;-63
2023/06/13 02:57:12;;;;;;;0.80;0.80;;;17.10;95.40;;;;;;5041091;28;20220;-62
2023/06/13 02:59:40;;;;;;;1.75;1.15;;;17.00;95.80;;;;;;5039402;28;20232;-62
2023/06/13 03:02:08;;;;;;;1.15;0.88;;;16.90;95.70;;;;;;5051262;28;20203;-62
2023/06/13 03:04:36;;;;;;;0.88;0.70;;;16.90;96.10;;;;;;5037082;28;20220;-61
2023/06/13 03:07:05;;;;;;;1.00;0.90;;;16.90;96.50;;;;;;5037435;28;20307;-62
2023/06/13 03:09:34;;;;;;;1.55;0.93;;;16.80;96.70;;;;;;5031970;28;20265;-62
2023/06/13 03:12:03;;;;;;;1.42;1.33;;;16.80;96.70;;;;;;5036858;28;20212;-61
2023/06/13 03:14:32;;;;;;;1.10;1.00;;;16.80;97.10;;;;;;5036235;28;20205;-61
2023/06/13 03:17:02;;;;;;;0.93;0.70;;;16.80;97.50;;;;;;5040616;28;20215;-61
2023/06/13 03:19:30;;;;;;;1.70;1.08;;;16.80;97.10;;;;;;5039999;28;20215;-61
2023/06/13 03:21:58;;;;;;;0.98;0.80;;;16.80;97.50;;;;;;5041488;28;20568;-62
2023/06/13 03:24:26;;;;;;;2.08;1.33;;;16.70;97.20;;;;;;5041438;28;20221;-62
2023/06/13 03:26:56;;;;;;;0.90;0.70;;;16.80;97.50;;;;;;5038685;28;20584;-62
2023/06/13 03:29:23;;;;;;;1.33;1.10;;;16.70;97.70;;;;;;5044014;28;20259;-62
2023/06/13 03:31:52;;;;;;;1.05;0.95;;;16.70;97.80;;;;;;5047842;28;20204;-62
2023/06/13 03:34:25;;;;;;;1.40;1.30;;;16.70;97.80;;;;;;5040139;28;20201;-62
2023/06/13 03:36:52;;;;;;;1.13;0.73;;;16.70;98.20;;;;;;5038015;28;21869;-62
2023/06/13 03:39:20;;;;;;;0.80;0.80;;;16.60;98.20;;;;;;5041493;28;20211;-62
2023/06/13 03:41:48;;;;;;;1.30;1.00;;;16.60;98.20;;;;;;5036843;28;20209;-62
2023/06/13 03:44:17;;;;;;;1.30;0.93;;;16.70;98.50;;;;;;5042293;28;20224;-62
2023/06/13 03:46:45;;;;;;;1.05;0.95;;;16.70;98.50;;;;;;5039201;28;20212;-62
2023/06/13 03:49:13;;;;;;;0.80;0.73;;;16.60;98.90;;;;;;5036854;28;20204;-62
2023/06/13 03:51:43;;;;;;;0.80;0.80;;;16.60;98.80;;;;;;5039044;28;20229;-62
2023/06/13 03:54:11;;;;;;;1.40;1.05;;;16.60;98.50;;;;;;5033835;28;20239;-62
2023/06/13 03:56:38;;;;;;;1.58;1.40;;;16.60;99.30;;;;;;5042036;28;20208;-62
2023/06/13 03:59:06;;;;;;;1.30;0.85;;;16.60;99.50;;;;;;5046571;28;20207;-62
2023/06/13 04:01:36;;;;;;;1.08;0.90;;;16.60;99.10;;;;;;5042030;28;20651;-61
2023/06/13 04:04:04;;;;;;;1.20;1.10;;;16.70;99.40;;;;;;5039469;28;20212;-62
2023/06/13 04:06:32;;;;;;;1.02;0.88;;;16.70;99.50;;;;;;5037462;28;20197;-62
2023/06/13 04:09:03;;;;;;;0.95;0.85;;;16.70;99.70;;;;;;5031307;28;20267;-62
2023/06/13 04:11:31;;;;;;;0.90;0.80;;;16.70;99.90;;;;;;5046047;28;20239;-62
2023/06/13 04:13:58;;;;;;;1.20;0.68;;;16.80;99.10;;;;;;5042534;28;20790;-67
2023/06/13 04:16:26;;;;;;;1.13;0.60;;;16.80;99.90;;;;;;5027799;28;20289;-67
2023/06/13 04:18:56;;;;;;;1.00;0.90;;;16.90;99.60;;;;;;5027365;28;20285;-66
2023/06/13 04:21:25;;;;;;;1.33;1.08;;;17.00;98.60;;;;;;5035715;28;20231;-66
2023/06/13 04:23:53;;;;;;;1.65;0.90;;;17.20;99.90;;;;;;5034820;28;20883;-67
2023/06/13 04:26:23;;;;;;;0.95;0.85;;;17.40;99.60;;;;;;5033232;28;20245;-67
2023/06/13 04:28:52;;;;;;;0.90;0.70;;;17.70;99.90;;;;;;5033538;28;20709;-68
2023/06/13 04:31:21;;;;;;;0.82;0.75;;;17.90;99.10;;;;;;5034302;28;20239;-67
2023/06/13 04:33:49;;;;;;;1.70;1.35;;;17.80;98.80;;;;;;5035329;28;20223;-67
2023/06/13 04:36:19;;;;;;;1.10;0.90;;;18.00;99.20;;;;;;5033184;28;20223;-67
2023/06/13 04:38:47;;;;;;;0.85;0.68;;;17.90;99.20;;;;;;5031915;28;20212;-67
2023/06/13 04:41:16;;;;;;;1.35;0.70;;;17.90;98.70;;;;;;5033713;28;20277;-67
2023/06/13 04:43:45;;;;;;;1.15;0.60;;;18.20;99.00;;;;;;5033438;28;20232;-67
2023/06/13 04:46:18;;;;;;;0.77;0.70;;;18.30;99.90;;;;;;5033838;28;20228;-67
2023/06/13 04:48:46;;;;;;;1.00;0.90;;;18.70;98.40;;;;;;5030940;28;20216;-67
2023/06/13 04:51:15;;;;;;;1.73;1.15;;;18.80;98.00;;;;;;5033545;28;20244;-67
2023/06/13 04:53:45;;;;;;;1.10;1.00;;;18.80;97.70;;;;;;5035413;28;20687;-66
2023/06/13 04:56:13;;;;;;;0.70;0.60;;;18.80;98.10;;;;;;5035650;28;20196;-67
2023/06/13 04:58:41;;;;;;;0.80;0.70;;;18.90;98.70;;;;;;5033479;28;20721;-66
2023/06/13 05:01:10;;;;;;;1.65;0.80;;;18.90;97.70;;;;;;5030204;28;20233;-66
2023/06/13 05:03:38;;;;;;;1.40;1.00;;;18.90;98.90;;;;;;5036467;28;20208;-67
2023/06/13 05:06:07;;;;;;;1.27;1.15;;;18.70;96.90;;;;;;5032353;28;20229;-67
2023/06/13 05:08:35;;;;;;;1.10;0.80;;;18.70;97.60;;;;;;5030259;28;20205;-67
2023/06/13 05:11:04;;;;;;;0.80;0.70;;;18.60;98.80;;;;;;5033399;28;20727;-67
2023/06/13 05:13:32;;;;;;;0.90;0.80;;;18.70;98.60;;;;;;5033882;28;20212;-67
2023/06/13 05:16:00;;;;;;;1.00;0.70;;;18.70;98.50;;;;;;5036051;28;20215;-67
2023/06/13 05:18:29;;;;;;;0.68;0.60;;;18.70;98.40;;;;;;5033529;28;20223;-66
2023/06/13 05:20:58;;;;;;;0.70;0.50;;;18.90;98.70;;;;;;5033537;28;20347;-66
2023/06/13 05:23:26;;;;;;;1.02;0.95;;;18.80;97.40;;;;;;5036923;28;20214;-67
2023/06/13 05:25:54;;;;;;;0.95;0.90;;;18.80;98.00;;;;;;5033416;28;20224;-67
2023/06/13 05:28:23;;;;;;;1.02;0.80;;;18.80;98.00;;;;;;5030758;28;20216;-66
2023/06/13 05:30:51;;;;;;;0.93;0.68;;;19.00;97.60;;;;;;5030439;28;20781;-67
2023/06/13 05:33:19;;;;;;;1.25;1.05;;;19.10;97.40;;;;;;5028021;28;20208;-67
2023/06/13 05:35:47;;;;;;;0.90;0.90;;;19.10;96.60;;;;;;5033754;28;20589;-67
2023/06/13 05:38:25;;;;;;;1.35;1.10;;;19.10;96.80;;;;;;5035111;28;21445;-67
2023/06/13 05:40:53;;;;;;;1.42;0.70;;;19.10;97.10;;;;;;5033563;28;20228;-67
2023/06/13 05:43:22;;;;;;;0.60;0.52;;;19.10;96.10;;;;;;5035419;28;20213;-67
2023/06/13 05:45:51;;;;;;;0.80;0.70;;;19.00;96.30;;;;;;5031601;28;20232;-67
2023/06/13 05:48:19;;;;;;;0.80;0.80;;;19.00;97.30;;;;;;5033536;28;20212;-66
2023/06/13 05:50:47;;;;;;;1.20;0.80;;;19.20;97.40;;;;;;5035564;28;20228;-68
2023/06/13 05:53:15;;;;;;;0.77;0.73;;;19.20;97.60;;;;;;5037103;28;20247;-67
2023/06/13 05:55:43;;;;;;;0.80;0.80;;;19.40;97.70;;;;;;5039638;28;20254;-67
2023/06/13 05:58:11;;;;;;;0.93;0.82;;;19.60;97.60;;;;;;5042152;28;20797;-66
2023/06/13 06:00:41;;;;;;;1.27;0.95;;;19.70;96.00;;;;;;5039759;28;20675;-67
2023/06/13 06:03:09;;;;;;;0.70;0.60;;;19.80;96.30;;;;;;5042105;28;20294;-65
2023/06/13 06:05:37;;;;;;;0.90;0.68;;;19.90;96.30;;;;;;5040766;28;20229;-66
2023/06/13 06:08:05;;;;;;;1.30;1.20;;;19.90;96.10;;;;;;5041573;28;20287;-66
2023/06/13 06:10:33;;;;;;;0.70;0.60;;;19.90;96.10;;;;;;5037311;28;20237;-67
2023/06/13 06:13:01;;;;;;;0.95;0.70;;;20.00;96.30;;;;;;5046508;28;20221;-67
2023/06/13 06:15:29;;;;;;;1.40;0.75;;;20.10;96.00;;;;;;5041999;28;20210;-66
2023/06/13 06:17:58;;;;;;;0.70;0.50;;;20.30;96.60;;;;;;5040933;28;20678;-67
2023/06/13 06:20:26;;;;;;;1.00;1.00;;;20.40;95.60;;;;;;5039402;28;20237;-68
2023/06/13 06:22:54;;;;;;;0.80;0.55;;;20.50;95.30;;;;;;5041292;28;20213;-66
2023/06/13 06:25:22;;;;;;;1.13;0.60;;;20.40;95.40;;;;;;5040438;28;20989;-66
2023/06/13 06:27:54;;;;;;;0.80;0.70;;;20.50;95.10;;;;;;5041580;28;20284;-66
2023/06/13 06:30:23;;;;;;;0.73;0.73;;;20.60;94.50;;;;;;5039818;28;20232;-66
2023/06/13 06:32:51;;;;;;;0.70;0.60;;;20.60;94.70;;;;;;5039597;28;20730;-66
2023/06/13 06:35:21;;;;;;;0.80;0.73;;;20.70;94.60;;;;;;5040005;28;20219;-67
2023/06/13 06:37:49;;;;;;;0.70;0.70;;;20.80;94.50;;;;;;5039970;28;20777;-67
2023/06/13 06:40:17;;;;;;;1.17;1.08;;;21.00;94.40;;;;;;5039577;28;20737;-67
2023/06/13 06:42:46;;;;;;;0.70;0.55;;;21.10;95.00;;;;;;5041486;28;20569;-67
2023/06/13 06:45:14;;;;;;;1.10;0.82;;;21.30;95.20;;;;;;5040054;28;20214;-67
2023/06/13 06:47:42;;;;;;;0.60;0.50;;;21.40;95.40;;;;;;5034488;28;20228;-65
2023/06/13 06:50:11;;;;;;;0.88;0.75;;;21.50;92.60;;;;;;5033603;28;20699;-65
2023/06/13 06:52:41;;;;;;;1.00;0.60;;;21.50;94.20;;;;;;5034984;28;21155;-66
2023/06/13 06:55:09;;;;;;;1.17;0.77;;;21.60;93.10;;;;;;5036694;28;20209;-65
2023/06/13 06:57:37;;;;;;;1.00;0.85;;;21.60;93.10;;;;;;5036950;28;20262;-66
2023/06/13 07:00:08;;;;;;;0.60;0.45;;;21.80;93.60;;;;;;5031956;28;20782;-66
2023/06/13 07:02:36;;;;;;;0.70;0.60;;;21.70;92.60;;;;;;5034112;28;20623;-66
2023/06/13 07:05:05;;;;;;;1.98;0.85;;;21.80;93.50;;;;;;5034201;28;20210;-65
2023/06/13 07:07:33;;;;;;;0.60;0.57;;;21.90;93.80;;;;;;5034225;28;20222;-67
2023/06/13 07:10:03;;;;;;;0.93;0.80;;;21.80;91.80;;;;;;5038691;28;20249;-68
2023/06/13 07:12:32;;;;;;;0.60;0.50;;;21.90;93.10;;;;;;5038829;28;20210;-66
2023/06/13 07:15:00;;;;;;;0.70;0.60;;;22.00;92.60;;;;;;5039035;28;20209;-67
2023/06/13 07:17:28;;;;;;;0.60;0.50;;;22.00;92.80;;;;;;5035963;28;20217;-68
2023/06/13 07:19:56;;;;;;;1.05;0.50;;;22.10;92.40;;;;;;5038451;28;20234;-67
2023/06/13 07:22:25;;;;;;;0.70;0.50;;;22.20;92.60;;;;;;5040529;28;20814;-68
2023/06/13 07:24:53;;;;;;;2.45;0.98;;;22.20;91.60;;;;;;5039685;28;20869;-68
2023/06/13 07:27:22;;;;;;;1.02;0.50;;;22.20;92.00;;;;;;5038948;28;20709;-67
2023/06/13 07:29:50;;;;;;;1.02;0.95;;;22.20;92.60;;;;;;5037870;28;20233;-67
2023/06/13 07:32:18;;;;;;;0.73;0.63;;;22.20;92.00;;;;;;5039948;28;20217;-67
2023/06/13 07:34:46;;;;;;;0.80;0.80;;;22.20;91.70;;;;;;5037102;28;20245;-68
2023/06/13 07:37:32;;;;;;;0.80;0.60;;;22.20;92.20;;;;;;5038307;28;20214;-65
2023/06/13 07:40:00;;;;;;;0.70;0.60;;;22.40;91.70;;;;;;5034088;28;20252;-65
2023/06/13 07:42:29;;;;;;;0.60;0.60;;;22.40;90.70;;;;;;5035110;28;20216;-66
2023/06/13 07:44:57;;;;;;;1.38;0.80;;;22.60;91.80;;;;;;5037132;28;20578;-67
2023/06/13 07:47:25;;;;;;;0.60;0.50;;;22.70;91.50;;;;;;5037287;28;20230;-67
2023/06/13 07:49:53;;;;;;;0.80;0.80;;;22.80;91.60;;;;;;5033118;28;20238;-67
2023/06/13 07:52:21;;;;;;;0.70;0.60;;;22.90;90.30;;;;;;5036466;28;20214;-68
2023/06/13 07:54:49;;;;;;;0.70;0.50;;;23.00;90.60;;;;;;5036191;28;20225;-67
2023/06/13 07:57:17;;;;;;;0.85;0.75;;;23.10;90.60;;;;;;5038035;28;20581;-66
2023/06/13 07:59:49;;;;;;;1.15;1.05;;;23.10;90.60;;;;;;5036356;28;20645;-67
2023/06/13 08:02:17;;;;;;;1.08;0.60;;;23.20;90.70;;;;;;5039066;28;20216;-68
2023/06/13 08:04:45;;;;;;;0.80;0.60;;;23.30;89.70;;;;;;5036709;28;20626;-65
2023/06/13 08:07:21;;;;;;;1.00;0.65;;;23.50;89.20;;;;;;5038578;28;20817;-65
2023/06/13 08:09:49;;;;;;;0.70;0.60;;;23.50;89.80;;;;;;5036851;28;20250;-65
2023/06/13 08:12:17;;;;;;;0.70;0.70;;;23.50;89.30;;;;;;5037369;28;20284;-68
2023/06/13 08:14:45;;;;;;;1.10;1.00;;;23.60;88.60;;;;;;5036530;28;20206;-67
2023/06/13 08:17:15;;;;;;;0.65;0.52;;;23.80;90.00;;;;;;5037390;28;20210;-67
2023/06/13 08:19:48;;;;;;;0.73;0.73;;;24.00;90.10;;;;;;5033223;28;20227;-67
2023/06/13 08:22:16;;;;;;;1.33;0.70;;;24.10;89.60;;;;;;5030596;28;20687;-67
2023/06/13 08:24:44;;;;;;;1.63;0.80;;;24.10;88.80;;;;;;5033534;28;20219;-68
2023/06/13 08:27:13;;;;;;;0.80;0.80;;;24.30;89.70;;;;;;5036208;28;20223;-64
2023/06/13 08:29:41;;;;;;;0.82;0.80;;;24.50;90.80;;;;;;5030498;28;20230;-64
2023/06/13 08:32:09;;;;;;;0.70;0.52;;;24.50;89.60;;;;;;5034246;28;20248;-64
2023/06/13 08:34:38;;;;;;;0.98;0.98;;;24.40;86.20;;;;;;5033456;28;20206;-64
2023/06/13 08:37:06;;;;;;;0.60;0.50;;;24.40;83.20;;;;;;5033317;28;20233;-64
2023/06/13 08:39:35;;;;;;;0.80;0.63;;;24.30;79.60;;;;;;5032888;28;20685;-65
2023/06/13 08:42:03;;;;;;;1.05;1.05;;;24.30;79.80;;;;;;5032668;28;20302;-64
2023/06/13 08:44:31;;;;;;;1.25;1.00;;;24.40;79.30;;;;;;5032889;28;20215;-64
2023/06/13 08:47:00;;;;;;;1.05;0.82;;;24.50;81.70;;;;;;5032851;28;20219;-64
2023/06/13 08:49:28;;;;;;;1.20;1.10;;;24.70;79.30;;;;;;5033140;28;20219;-64
2023/06/13 08:51:59;;;;;;;0.70;0.60;;;24.90;76.70;;;;;;5035768;28;20218;-65
2023/06/13 08:54:31;;;;;;;0.80;0.52;;;24.80;74.40;;;;;;5033504;28;20369;-65
2023/06/13 08:57:04;;;;;;;1.00;0.90;;;24.90;78.90;;;;;;5030825;28;20466;-64
2023/06/13 08:59:35;;;;;;;0.70;0.60;;;25.10;75.70;;;;;;5031088;28;20215;-63
2023/06/13 09:02:05;;;;;;;1.08;0.88;;;25.40;77.10;;;;;;5033240;28;20222;-64
2023/06/13 09:04:35;;;;;;;0.60;0.43;;;25.50;78.40;;;;;;5031819;28;20673;-65
2023/06/13 09:07:05;;;;;;;0.70;0.60;;;25.60;76.20;;;;;;5029918;28;20215;-65
2023/06/13 09:09:35;;;;;;;1.25;1.00;;;25.60;76.30;;;;;;5034529;28;20293;-64
2023/06/13 09:12:06;;;;;;;0.60;0.50;;;25.70;75.80;;;;;;5033032;28;20599;-63
2023/06/13 09:14:34;;;;;;;1.15;0.77;;;25.70;75.70;;;;;;5030916;28;20207;-64
2023/06/13 09:17:03;;;;;;;2.13;0.90;;;25.90;77.00;;;;;;5033475;28;20212;-64
2023/06/13 09:19:31;;;;;;;0.70;0.68;;;26.10;78.20;;;;;;5036107;28;20739;-65
2023/06/13 09:22:00;;;;;;;0.70;0.60;;;26.20;74.50;;;;;;5037860;28;20211;-64
2023/06/13 09:24:32;;;;;;;0.80;0.60;;;26.20;73.90;;;;;;5035605;28;20289;-63
2023/06/13 09:27:02;;;;;;;1.02;0.60;;;26.10;72.60;;;;;;5033681;28;20235;-64
2023/06/13 09:29:35;;;;;;;0.70;0.60;;;26.30;73.60;;;;;;5034182;28;20278;-63
2023/06/13 09:32:09;;;;;;;1.27;0.80;;;26.40;72.90;;;;;;5039304;28;20204;-64
2023/06/13 09:34:57;;;;;;;1.15;0.65;;;26.30;72.10;;;;;;5039676;28;20413;-64
2023/06/13 09:37:26;;;;;;;0.90;0.77;;;26.50;72.30;;;;;;5037572;28;20219;-65
2023/06/13 09:39:56;;;;;;;0.70;0.68;;;26.60;73.40;;;;;;5040008;28;20224;-65
2023/06/13 09:42:27;;;;;;;1.23;0.77;;;26.60;72.30;;;;;;5037758;28;20590;-64
2023/06/13 09:44:56;;;;;;;0.68;0.63;;;26.70;71.00;;;;;;5038423;28;20224;-65
2023/06/13 09:47:27;;;;;;;0.65;0.50;;;26.90;71.60;;;;;;5037584;28;20209;-64
2023/06/13 09:49:56;;;;;;;0.80;0.60;;;27.00;72.60;;;;;;5034909;28;20228;-64
2023/06/13 09:52:26;;;;;;;0.70;0.52;;;27.10;70.80;;;;;;5037715;28;20207;-65
2023/06/13 09:54:56;;;;;;;0.80;0.80;;;27.50;72.60;;;;;;5038003;28;20212;-64
2023/06/13 09:57:24;;;;;;;0.70;0.57;;;27.30;69.20;;;;;;5038200;28;20274;-64
2023/06/13 10:00:15;;;;;;;0.70;0.68;;;27.30;71.90;;;;;;5040548;28;20246;-63
2023/06/13 10:02:45;;;;;;;0.80;0.68;;;27.50;71.00;;;;;;5040072;28;20239;-64
2023/06/13 10:05:13;;;;;;;0.60;0.50;;;27.60;70.60;;;;;;5034900;28;20220;-65
2023/06/13 10:07:41;;;;;;;0.90;0.70;;;27.70;72.30;;;;;;5037323;28;20215;-64
2023/06/13 10:10:10;;;;;;;1.08;0.75;;;28.10;70.60;;;;;;5063118;22;20254;-72
2023/06/13 10:12:45;;;;;;;0.75;0.70;;;28.00;69.70;;;;;;5058708;28;21267;-71
2023/06/13 10:15:20;;;;;;;0.70;0.70;;;28.00;68.50;;;;;;5058295;28;20319;-72
2023/06/13 10:17:48;;;;;;;0.70;0.70;;;27.80;67.90;;;;;;5056486;28;20199;-72
2023/06/13 10:20:17;;;;;;;0.60;0.50;;;27.70;69.30;;;;;;5055174;28;20211;-71
2023/06/13 10:22:46;;;;;;;1.00;0.80;;;28.00;68.50;;;;;;5056641;28;20704;-74
2023/06/13 10:25:19;;;;;;;1.02;0.88;;;28.30;67.10;;;;;;5055862;28;20943;-70
2023/06/13 10:27:52;;;;;;;1.13;0.85;;;28.10;68.80;;;;;;5053366;28;20216;-70
2023/06/13 10:30:36;;;;;;;0.90;0.73;;;28.10;68.70;;;;;;5053275;28;21102;-71
2023/06/13 10:33:23;;;;;;;0.60;0.50;;;28.30;68.60;;;;;;5054736;28;20298;-71
2023/06/13 10:36:14;;;;;;;0.80;0.70;;;28.40;68.70;;;;;;5057509;28;20218;-71
2023/06/13 10:39:14;;;;;;;0.70;0.60;;;28.40;67.60;;;;;;5055330;28;20820;-71
2023/06/13 10:41:58;;;;;;;0.60;0.60;;;28.80;66.10;;;;;;5056883;28;20219;-71
2023/06/13 10:44:32;;;;;;;0.98;0.88;;;28.60;67.50;;;;;;5057568;28;20204;-70
2023/06/13 10:47:06;;;;;;;0.98;0.73;;;28.80;66.40;;;;;;5058213;28;20219;-71
2023/06/13 10:49:38;;;;;;;0.63;0.50;;;28.90;65.60;;;;;;5053697;28;21264;-72
2023/06/13 10:52:11;;;;;;;0.70;0.57;;;28.90;63.50;;;;;;5058026;28;20231;-74
2023/06/13 10:54:39;;;;;;;0.75;0.60;;;29.00;64.20;;;;;;5058793;28;20785;-73
2023/06/13 10:57:10;;;;;;;0.70;0.52;;;28.90;63.10;;;;;;5057123;28;20215;-71
2023/06/13 10:59:40;;;;;;;0.77;0.60;;;28.80;62.90;;;;;;5053523;28;20988;-71
2023/06/13 11:02:15;;;;;;;1.17;0.95;;;28.50;63.60;;;;;;5056349;28;20251;-71
2023/06/13 11:04:49;;;;;;;1.02;0.93;;;28.60;64.30;;;;;;5053506;28;20213;-73
2023/06/13 11:07:28;;;;;;;0.70;0.60;;;28.80;64.00;;;;;;5055374;28;20203;-71
2023/06/13 11:10:04;;;;;;;0.80;0.80;;;29.00;62.80;;;;;;5057031;28;20222;-72
2023/06/13 11:12:34;;;;;;;0.80;0.80;;;29.30;62.80;;;;;;5054359;28;20674;-72
2023/06/13 11:15:02;;;;;;;0.68;0.52;;;29.70;62.80;;;;;;5055385;28;20942;-73
2023/06/13 11:17:29;;;;;;;1.02;0.95;;;29.40;62.20;;;;;;5055958;28;20595;-71
2023/06/13 11:19:58;;;;;;;0.70;0.60;;;29.20;62.40;;;;;;5051977;28;20321;-70
2023/06/13 11:22:26;;;;;;;0.90;0.50;;;28.90;63.00;;;;;;5054486;28;20231;-71
2023/06/13 11:24:56;;;;;;;0.70;0.50;;;28.70;62.30;;;;;;5054069;28;20211;-74
2023/06/13 11:27:25;;;;;;;1.00;0.90;;;28.50;63.60;;;;;;5055218;28;20211;-71
2023/06/13 11:29:56;;;;;;;0.80;0.60;;;28.60;62.50;;;;;;5055800;28;20219;-71
2023/06/13 11:32:24;;;;;;;0.70;0.63;;;29.10;63.40;;;;;;5054903;28;20236;-71
2023/06/13 11:34:56;;;;;;;0.70;0.60;;;29.40;64.90;;;;;;5054645;28;20489;-70
2023/06/13 11:37:30;;;;;;;0.82;0.55;;;29.80;62.00;;;;;;5054829;28;20238;-71
2023/06/13 11:39:58;;;;;;;2.35;0.70;;;29.80;61.60;;;;;;5054510;28;20211;-71
2023/06/13 11:42:29;;;;;;;0.80;0.73;;;29.70;62.00;;;;;;5053373;28;20232;-72
2023/06/13 11:44:59;;;;;;;0.60;0.50;;;29.40;61.80;;;;;;5056931;28;20620;-73
2023/06/13 11:47:27;;;;;;;1.00;0.90;;;29.40;61.80;;;;;;5056355;28;20230;-70
2023/06/13 11:49:56;;;;;;;0.70;0.55;;;29.50;62.50;;;;;;5053873;28;20656;-71
2023/06/13 11:52:25;;;;;;;0.60;0.50;;;29.40;61.70;;;;;;5054156;28;20242;-71
2023/06/13 11:54:54;;;;;;;0.80;0.70;;;29.50;61.80;;;;;;5053415;28;21007;-71
2023/06/13 11:57:23;;;;;;;0.90;0.70;;;29.60;62.30;;;;;;5052363;28;20211;-74
2023/06/13 11:59:58;;;;;;;0.80;0.75;;;30.00;60.80;;;;;;5052448;28;20207;-71
2023/06/13 12:02:28;;;;;;;1.15;1.15;;;29.90;60.00;;;;;;5056589;28;20654;-73
2023/06/13 12:04:57;;;;;;;0.80;0.53;;;30.10;58.90;;;;;;5054738;28;20906;-72
2023/06/13 12:07:25;;;;;;;0.80;0.70;;;30.20;60.10;;;;;;5055896;28;20638;-71
2023/06/13 12:09:53;;;;;;;0.90;0.63;;;29.90;59.30;;;;;;5053866;28;20226;-72
2023/06/13 12:12:21;;;;;;;0.98;0.98;;;29.70;60.00;;;;;;5056632;28;20666;-72
2023/06/13 12:14:54;;;;;;;0.67;0.60;;;29.50;59.90;;;;;;5052914;28;22056;-72
2023/06/13 12:17:26;;;;;;;0.70;0.65;;;29.50;59.00;;;;;;5055544;28;21300;-71
2023/06/13 12:20:07;;;;;;;0.70;0.60;;;30.00;60.00;;;;;;5052649;28;20822;-72
2023/06/13 12:22:35;;;;;;;0.70;0.70;;;30.20;60.40;;;;;;5058536;28;21190;-76
2023/06/13 12:25:04;;;;;;;0.70;0.60;;;30.60;60.60;;;;;;5054940;28;20650;-74
2023/06/13 12:27:33;;;;;;;0.80;0.63;;;30.60;59.80;;;;;;5050477;28;20638;-73
2023/06/13 12:30:09;;;;;;;0.70;0.60;;;30.70;59.10;;;;;;5052169;28;20657;-73
2023/06/13 12:32:43;;;;;;;0.90;0.63;;;30.80;58.70;;;;;;5056885;28;21776;-73
2023/06/13 12:35:12;;;;;;;1.13;0.60;;;30.70;58.30;;;;;;5054679;28;20631;-73
2023/06/13 12:37:41;;;;;;;0.70;0.60;;;30.90;58.90;;;;;;5055284;28;20657;-75
2023/06/13 12:40:12;;;;;;;0.70;0.60;;;30.60;58.30;;;;;;5047830;28;20619;-74
2023/06/13 12:42:42;;;;;;;0.90;0.80;;;30.40;58.70;;;;;;5056186;28;21005;-72
2023/06/13 12:45:11;;;;;;;0.70;0.60;;;30.60;58.40;;;;;;5051830;28;20631;-72
2023/06/13 12:47:40;;;;;;;0.70;0.63;;;30.60;57.70;;;;;;5054653;28;20625;-73
2023/06/13 12:50:10;;;;;;;1.10;0.50;;;30.80;57.10;;;;;;5051653;28;20661;-72
2023/06/13 12:52:39;;;;;;;0.80;0.80;;;30.90;58.10;;;;;;5053523;28;20635;-73
2023/06/13 12:55:07;;;;;;;1.20;1.03;;;30.90;56.90;;;;;;5055015;28;20642;-71
2023/06/13 12:57:35;;;;;;;0.80;0.60;;;31.20;58.40;;;;;;5054878;28;21006;-72
2023/06/13 13:00:06;;;;;;;0.80;0.70;;;31.20;58.60;;;;;;5049862;28;20667;-71
2023/06/13 13:02:34;;;;;;;0.70;0.60;;;31.40;57.10;;;;;;5056114;28;20719;-72